sensor_id;sensor_type;location;lat;lon;timestamp;P1;durP1;ratioP1;P2;durP2;ratioP2
21303;SDS011;30547;52.384;9.744;2022-07-29T00:01:06;3.10;;;1.20;;
21303;SDS011;30547;52.384;9.744;2022-07-29T00:03:32;3.88;;;1.10;;
21303;SDS011;30547;52.384;9.744;2022-07-29T00:05:59;6.40;;;1.67;;
21303;SDS011;30547;52.384;9.744;2022-07-29T00:08:28;3.13;;;1.02;;
21303;SDS011;30547;52.384;9.744;2022-07-29T00:10:53;3.08;;;1.02;;
21303;SDS011;30547;52.384;9.744;2022-07-29T00:13:19;4.15;;;1.17;;
21303;SDS011;30547;52.384;9.744;2022-07-29T00:15:47;3.10;;;1.08;;
21303;SDS011;30547;52.384;9.744;2022-07-29T00:18:12;2.17;;;1.00;;
21303;SDS011;30547;52.384;9.744;2022-07-29T00:20:38;2.70;;;1.10;;
21303;SDS011;30547;52.384;9.744;2022-07-29T00:23:05;3.75;;;1.00;;
21303;SDS011;30547;52.384;9.744;2022-07-29T00:25:30;2.55;;;1.08;;
21303;SDS011;30547;52.384;9.744;2022-07-29T00:27:57;4.90;;;0.93;;
21303;SDS011;30547;52.384;9.744;2022-07-29T00:30:27;2.08;;;0.98;;
21303;SDS011;30547;52.384;9.744;2022-07-29T00:32:57;2.90;;;1.00;;
21303;SDS011;30547;52.384;9.744;2022-07-29T00:35:30;3.83;;;1.15;;
21303;SDS011;30547;52.384;9.744;2022-07-29T00:38:18;2.10;;;1.00;;
21303;SDS011;30547;52.384;9.744;2022-07-29T00:40:46;2.92;;;0.98;;
21303;SDS011;30547;52.384;9.744;2022-07-29T00:43:13;3.13;;;1.20;;
21303;SDS011;30547;52.384;9.744;2022-07-29T00:45:41;6.00;;;1.10;;
21303;SDS011;30547;52.384;9.744;2022-07-29T00:48:11;2.13;;;1.10;;
21303;SDS011;30547;52.384;9.744;2022-07-29T00:50:39;2.90;;;1.00;;
21303;SDS011;30547;52.384;9.744;2022-07-29T00:53:09;3.38;;;1.30;;
21303;SDS011;30547;52.384;9.744;2022-07-29T00:55:40;3.13;;;1.00;;
21303;SDS011;30547;52.384;9.744;2022-07-29T00:58:09;5.22;;;1.25;;
21303;SDS011;30547;52.384;9.744;2022-07-29T01:00:37;3.92;;;1.30;;
21303;SDS011;30547;52.384;9.744;2022-07-29T01:03:02;2.93;;;1.00;;
21303;SDS011;30547;52.384;9.744;2022-07-29T01:05:28;5.65;;;1.30;;
21303;SDS011;30547;52.384;9.744;2022-07-29T01:07:55;3.67;;;1.10;;
21303;SDS011;30547;52.384;9.744;2022-07-29T01:10:21;3.47;;;1.23;;
21303;SDS011;30547;52.384;9.744;2022-07-29T01:12:48;3.92;;;1.30;;
21303;SDS011;30547;52.384;9.744;2022-07-29T01:15:15;2.90;;;1.15;;
21303;SDS011;30547;52.384;9.744;2022-07-29T01:29:38;3.13;;;1.17;;
21303;SDS011;30547;52.384;9.744;2022-07-29T01:32:18;3.00;;;1.30;;
21303;SDS011;30547;52.384;9.744;2022-07-29T01:37:48;6.53;;;1.48;;
21303;SDS011;30547;52.384;9.744;2022-07-29T01:40:22;5.30;;;1.50;;
21303;SDS011;30547;52.384;9.744;2022-07-29T01:42:58;2.70;;;1.30;;
21303;SDS011;30547;52.384;9.744;2022-07-29T01:51:00;5.65;;;1.50;;
21303;SDS011;30547;52.384;9.744;2022-07-29T01:53:29;4.28;;;1.48;;
21303;SDS011;30547;52.384;9.744;2022-07-29T01:55:57;4.55;;;1.15;;
21303;SDS011;30547;52.384;9.744;2022-07-29T01:58:25;5.60;;;1.65;;
21303;SDS011;30547;52.384;9.744;2022-07-29T02:00:55;3.27;;;1.20;;
21303;SDS011;30547;52.384;9.744;2022-07-29T02:03:21;3.60;;;1.50;;
21303;SDS011;30547;52.384;9.744;2022-07-29T02:05:48;5.57;;;1.42;;
21303;SDS011;30547;52.384;9.744;2022-07-29T02:08:15;2.60;;;1.20;;
21303;SDS011;30547;52.384;9.744;2022-07-29T02:10:45;5.93;;;1.50;;
21303;SDS011;30547;52.384;9.744;2022-07-29T02:13:11;3.05;;;1.27;;
21303;SDS011;30547;52.384;9.744;2022-07-29T02:15:38;3.33;;;1.35;;
21303;SDS011;30547;52.384;9.744;2022-07-29T02:18:05;3.00;;;1.20;;
21303;SDS011;30547;52.384;9.744;2022-07-29T02:20:32;5.53;;;1.60;;
21303;SDS011;30547;52.384;9.744;2022-07-29T02:22:59;4.07;;;1.50;;
21303;SDS011;30547;52.384;9.744;2022-07-29T02:25:25;4.82;;;1.40;;
21303;SDS011;30547;52.384;9.744;2022-07-29T02:27:51;4.93;;;1.20;;
21303;SDS011;30547;52.384;9.744;2022-07-29T02:30:18;3.07;;;1.23;;
21303;SDS011;30547;52.384;9.744;2022-07-29T02:32:44;4.53;;;1.00;;
21303;SDS011;30547;52.384;9.744;2022-07-29T02:35:13;3.10;;;1.15;;
21303;SDS011;30547;52.384;9.744;2022-07-29T02:37:39;2.57;;;1.20;;
21303;SDS011;30547;52.384;9.744;2022-07-29T02:40:05;2.45;;;1.17;;
21303;SDS011;30547;52.384;9.744;2022-07-29T02:42:52;3.88;;;1.20;;
21303;SDS011;30547;52.384;9.744;2022-07-29T02:45:18;3.57;;;1.43;;
21303;SDS011;30547;52.384;9.744;2022-07-29T02:47:46;4.93;;;1.30;;
21303;SDS011;30547;52.384;9.744;2022-07-29T02:50:18;3.13;;;1.20;;
21303;SDS011;30547;52.384;9.744;2022-07-29T02:55:46;6.25;;;1.40;;
21303;SDS011;30547;52.384;9.744;2022-07-29T03:01:24;3.97;;;1.90;;
21303;SDS011;30547;52.384;9.744;2022-07-29T03:03:56;3.80;;;1.60;;
21303;SDS011;30547;52.384;9.744;2022-07-29T03:06:25;4.80;;;1.30;;
21303;SDS011;30547;52.384;9.744;2022-07-29T03:08:52;2.70;;;1.00;;
21303;SDS011;30547;52.384;9.744;2022-07-29T03:11:19;3.17;;;1.30;;
21303;SDS011;30547;52.384;9.744;2022-07-29T03:13:45;5.28;;;1.50;;
21303;SDS011;30547;52.384;9.744;2022-07-29T03:16:10;2.30;;;1.27;;
21303;SDS011;30547;52.384;9.744;2022-07-29T03:18:36;5.97;;;1.40;;
21303;SDS011;30547;52.384;9.744;2022-07-29T03:21:04;2.72;;;1.35;;
21303;SDS011;30547;52.384;9.744;2022-07-29T03:23:30;4.53;;;1.40;;
21303;SDS011;30547;52.384;9.744;2022-07-29T03:25:56;3.67;;;1.50;;
21303;SDS011;30547;52.384;9.744;2022-07-29T03:28:22;7.57;;;1.60;;
21303;SDS011;30547;52.384;9.744;2022-07-29T03:30:47;3.17;;;1.38;;
21303;SDS011;30547;52.384;9.744;2022-07-29T03:33:13;2.20;;;1.40;;
21303;SDS011;30547;52.384;9.744;2022-07-29T03:35:39;2.60;;;1.20;;
21303;SDS011;30547;52.384;9.744;2022-07-29T03:38:07;3.22;;;1.38;;
21303;SDS011;30547;52.384;9.744;2022-07-29T03:40:56;5.43;;;1.50;;
21303;SDS011;30547;52.384;9.744;2022-07-29T03:43:29;3.72;;;1.40;;
21303;SDS011;30547;52.384;9.744;2022-07-29T03:45:57;5.72;;;1.80;;
21303;SDS011;30547;52.384;9.744;2022-07-29T03:48:26;4.13;;;1.45;;
21303;SDS011;30547;52.384;9.744;2022-07-29T03:50:54;4.23;;;1.33;;
21303;SDS011;30547;52.384;9.744;2022-07-29T03:53:20;3.28;;;1.15;;
21303;SDS011;30547;52.384;9.744;2022-07-29T03:55:50;2.08;;;1.45;;
21303;SDS011;30547;52.384;9.744;2022-07-29T03:58:18;4.00;;;1.33;;
21303;SDS011;30547;52.384;9.744;2022-07-29T04:00:43;3.53;;;1.00;;
21303;SDS011;30547;52.384;9.744;2022-07-29T04:03:10;4.17;;;1.60;;
21303;SDS011;30547;52.384;9.744;2022-07-29T04:05:35;3.05;;;1.30;;
21303;SDS011;30547;52.384;9.744;2022-07-29T04:08:01;5.27;;;1.40;;
21303;SDS011;30547;52.384;9.744;2022-07-29T04:10:26;2.40;;;1.23;;
21303;SDS011;30547;52.384;9.744;2022-07-29T04:12:52;5.40;;;1.30;;
21303;SDS011;30547;52.384;9.744;2022-07-29T04:15:20;4.35;;;1.50;;
21303;SDS011;30547;52.384;9.744;2022-07-29T04:17:48;4.43;;;1.20;;
21303;SDS011;30547;52.384;9.744;2022-07-29T04:20:13;3.60;;;1.20;;
21303;SDS011;30547;52.384;9.744;2022-07-29T04:22:39;4.33;;;1.30;;
21303;SDS011;30547;52.384;9.744;2022-07-29T04:25:05;4.20;;;1.33;;
21303;SDS011;30547;52.384;9.744;2022-07-29T04:27:31;4.95;;;1.40;;
21303;SDS011;30547;52.384;9.744;2022-07-29T04:29:57;8.37;;;1.60;;
21303;SDS011;30547;52.384;9.744;2022-07-29T04:32:23;4.23;;;1.43;;
21303;SDS011;30547;52.384;9.744;2022-07-29T04:34:51;4.75;;;1.35;;
21303;SDS011;30547;52.384;9.744;2022-07-29T04:37:17;5.03;;;1.40;;
21303;SDS011;30547;52.384;9.744;2022-07-29T04:39:43;5.20;;;1.57;;
21303;SDS011;30547;52.384;9.744;2022-07-29T04:42:09;4.93;;;1.65;;
21303;SDS011;30547;52.384;9.744;2022-07-29T04:44:35;3.37;;;1.50;;
21303;SDS011;30547;52.384;9.744;2022-07-29T04:47:02;5.97;;;1.70;;
21303;SDS011;30547;52.384;9.744;2022-07-29T04:49:28;6.93;;;1.45;;
21303;SDS011;30547;52.384;9.744;2022-07-29T04:51:54;4.20;;;1.60;;
21303;SDS011;30547;52.384;9.744;2022-07-29T04:54:22;3.92;;;1.42;;
21303;SDS011;30547;52.384;9.744;2022-07-29T04:56:50;3.55;;;1.58;;
21303;SDS011;30547;52.384;9.744;2022-07-29T04:59:16;4.17;;;1.60;;
21303;SDS011;30547;52.384;9.744;2022-07-29T05:01:41;3.80;;;1.67;;
21303;SDS011;30547;52.384;9.744;2022-07-29T05:04:09;3.92;;;1.55;;
21303;SDS011;30547;52.384;9.744;2022-07-29T05:06:35;4.33;;;1.70;;
21303;SDS011;30547;52.384;9.744;2022-07-29T05:09:03;3.17;;;1.42;;
21303;SDS011;30547;52.384;9.744;2022-07-29T05:11:29;4.30;;;1.77;;
21303;SDS011;30547;52.384;9.744;2022-07-29T05:13:54;4.80;;;1.65;;
21303;SDS011;30547;52.384;9.744;2022-07-29T05:16:20;4.30;;;1.50;;
21303;SDS011;30547;52.384;9.744;2022-07-29T05:18:46;7.35;;;1.67;;
21303;SDS011;30547;52.384;9.744;2022-07-29T05:21:11;4.83;;;1.80;;
21303;SDS011;30547;52.384;9.744;2022-07-29T05:23:39;6.05;;;1.50;;
21303;SDS011;30547;52.384;9.744;2022-07-29T05:26:05;5.75;;;1.55;;
21303;SDS011;30547;52.384;9.744;2022-07-29T05:28:34;4.73;;;1.60;;
21303;SDS011;30547;52.384;9.744;2022-07-29T05:31:00;7.45;;;1.65;;
21303;SDS011;30547;52.384;9.744;2022-07-29T05:33:28;5.77;;;1.63;;
21303;SDS011;30547;52.384;9.744;2022-07-29T05:35:53;4.82;;;1.63;;
21303;SDS011;30547;52.384;9.744;2022-07-29T05:38:19;3.57;;;1.70;;
21303;SDS011;30547;52.384;9.744;2022-07-29T05:40:45;7.63;;;1.70;;
21303;SDS011;30547;52.384;9.744;2022-07-29T05:43:10;4.70;;;1.50;;
21303;SDS011;30547;52.384;9.744;2022-07-29T05:45:36;6.60;;;1.70;;
21303;SDS011;30547;52.384;9.744;2022-07-29T05:48:04;4.47;;;1.80;;
21303;SDS011;30547;52.384;9.744;2022-07-29T05:50:29;5.65;;;1.92;;
21303;SDS011;30547;52.384;9.744;2022-07-29T05:52:59;4.57;;;2.00;;
21303;SDS011;30547;52.384;9.744;2022-07-29T05:55:25;5.53;;;2.17;;
21303;SDS011;30547;52.384;9.744;2022-07-29T05:57:51;7.40;;;1.80;;
21303;SDS011;30547;52.384;9.744;2022-07-29T06:00:17;7.57;;;2.00;;
21303;SDS011;30547;52.384;9.744;2022-07-29T06:02:43;3.97;;;1.73;;
21303;SDS011;30547;52.384;9.744;2022-07-29T06:05:11;8.10;;;2.00;;
21303;SDS011;30547;52.384;9.744;2022-07-29T06:07:37;6.00;;;1.90;;
21303;SDS011;30547;52.384;9.744;2022-07-29T06:10:04;6.50;;;1.60;;
21303;SDS011;30547;52.384;9.744;2022-07-29T06:12:30;4.17;;;2.00;;
21303;SDS011;30547;52.384;9.744;2022-07-29T06:14:56;6.63;;;2.03;;
21303;SDS011;30547;52.384;9.744;2022-07-29T06:17:24;3.90;;;1.88;;
21303;SDS011;30547;52.384;9.744;2022-07-29T06:19:50;5.25;;;1.90;;
21303;SDS011;30547;52.384;9.744;2022-07-29T06:22:19;7.75;;;2.03;;
21303;SDS011;30547;52.384;9.744;2022-07-29T06:24:46;6.47;;;1.85;;
21303;SDS011;30547;52.384;9.744;2022-07-29T06:27:13;6.20;;;2.00;;
21303;SDS011;30547;52.384;9.744;2022-07-29T06:29:46;3.45;;;1.90;;
21303;SDS011;30547;52.384;9.744;2022-07-29T06:32:15;5.78;;;2.30;;
21303;SDS011;30547;52.384;9.744;2022-07-29T06:34:41;4.57;;;1.92;;
21303;SDS011;30547;52.384;9.744;2022-07-29T06:37:08;4.32;;;1.88;;
21303;SDS011;30547;52.384;9.744;2022-07-29T06:39:36;4.70;;;1.93;;
21303;SDS011;30547;52.384;9.744;2022-07-29T06:42:08;5.70;;;2.50;;
21303;SDS011;30547;52.384;9.744;2022-07-29T06:44:38;4.37;;;1.93;;
21303;SDS011;30547;52.384;9.744;2022-07-29T06:47:05;5.75;;;2.10;;
21303;SDS011;30547;52.384;9.744;2022-07-29T06:49:32;7.38;;;1.88;;
21303;SDS011;30547;52.384;9.744;2022-07-29T06:51:59;5.60;;;2.40;;
21303;SDS011;30547;52.384;9.744;2022-07-29T06:54:30;5.13;;;2.08;;
21303;SDS011;30547;52.384;9.744;2022-07-29T06:56:58;4.90;;;1.90;;
21303;SDS011;30547;52.384;9.744;2022-07-29T06:59:24;4.22;;;1.80;;
21303;SDS011;30547;52.384;9.744;2022-07-29T07:01:49;5.53;;;1.85;;
21303;SDS011;30547;52.384;9.744;2022-07-29T07:04:15;5.00;;;2.00;;
21303;SDS011;30547;52.384;9.744;2022-07-29T07:06:41;9.23;;;2.10;;
21303;SDS011;30547;52.384;9.744;2022-07-29T07:09:06;9.80;;;1.90;;
21303;SDS011;30547;52.384;9.744;2022-07-29T07:11:32;4.60;;;1.80;;
21303;SDS011;30547;52.384;9.744;2022-07-29T07:13:57;7.23;;;1.80;;
21303;SDS011;30547;52.384;9.744;2022-07-29T07:16:25;5.25;;;2.00;;
21303;SDS011;30547;52.384;9.744;2022-07-29T07:18:51;7.28;;;2.00;;
21303;SDS011;30547;52.384;9.744;2022-07-29T07:21:19;6.43;;;2.20;;
21303;SDS011;30547;52.384;9.744;2022-07-29T07:23:45;6.63;;;2.15;;
21303;SDS011;30547;52.384;9.744;2022-07-29T07:26:11;5.50;;;2.07;;
21303;SDS011;30547;52.384;9.744;2022-07-29T07:28:37;4.72;;;2.10;;
21303;SDS011;30547;52.384;9.744;2022-07-29T07:31:03;5.60;;;1.87;;
21303;SDS011;30547;52.384;9.744;2022-07-29T07:33:31;8.05;;;2.38;;
21303;SDS011;30547;52.384;9.744;2022-07-29T07:35:57;4.77;;;2.20;;
21303;SDS011;30547;52.384;9.744;2022-07-29T07:38:23;7.03;;;2.00;;
21303;SDS011;30547;52.384;9.744;2022-07-29T07:40:48;7.27;;;2.30;;
21303;SDS011;30547;52.384;9.744;2022-07-29T07:43:14;6.53;;;2.33;;
21303;SDS011;30547;52.384;9.744;2022-07-29T07:45:42;10.18;;;2.35;;
21303;SDS011;30547;52.384;9.744;2022-07-29T07:48:09;5.63;;;2.08;;
21303;SDS011;30547;52.384;9.744;2022-07-29T07:50:38;4.90;;;2.17;;
21303;SDS011;30547;52.384;9.744;2022-07-29T07:53:03;8.77;;;2.47;;
21303;SDS011;30547;52.384;9.744;2022-07-29T07:55:29;4.88;;;2.53;;
21303;SDS011;30547;52.384;9.744;2022-07-29T07:57:55;5.78;;;2.50;;
21303;SDS011;30547;52.384;9.744;2022-07-29T08:00:24;8.57;;;2.47;;
21303;SDS011;30547;52.384;9.744;2022-07-29T08:02:53;9.80;;;2.33;;
21303;SDS011;30547;52.384;9.744;2022-07-29T08:05:20;7.17;;;2.10;;
21303;SDS011;30547;52.384;9.744;2022-07-29T08:07:49;5.72;;;2.22;;
21303;SDS011;30547;52.384;9.744;2022-07-29T08:10:18;5.10;;;2.28;;
21303;SDS011;30547;52.384;9.744;2022-07-29T08:13:06;7.30;;;2.25;;
21303;SDS011;30547;52.384;9.744;2022-07-29T08:15:43;6.38;;;2.50;;
21303;SDS011;30547;52.384;9.744;2022-07-29T08:18:20;6.45;;;2.38;;
21303;SDS011;30547;52.384;9.744;2022-07-29T08:20:47;7.75;;;2.10;;
21303;SDS011;30547;52.384;9.744;2022-07-29T08:23:14;8.38;;;2.20;;
21303;SDS011;30547;52.384;9.744;2022-07-29T08:25:41;5.45;;;2.45;;
21303;SDS011;30547;52.384;9.744;2022-07-29T08:28:07;4.33;;;2.10;;
21303;SDS011;30547;52.384;9.744;2022-07-29T08:30:33;6.10;;;2.90;;
21303;SDS011;30547;52.384;9.744;2022-07-29T08:32:59;8.18;;;2.72;;
21303;SDS011;30547;52.384;9.744;2022-07-29T08:35:27;6.97;;;2.10;;
21303;SDS011;30547;52.384;9.744;2022-07-29T08:37:55;7.03;;;2.38;;
21303;SDS011;30547;52.384;9.744;2022-07-29T08:40:22;3.15;;;2.00;;
21303;SDS011;30547;52.384;9.744;2022-07-29T08:42:51;6.65;;;2.28;;
21303;SDS011;30547;52.384;9.744;2022-07-29T08:45:19;5.78;;;2.28;;
21303;SDS011;30547;52.384;9.744;2022-07-29T08:47:50;6.32;;;2.17;;
21303;SDS011;30547;52.384;9.744;2022-07-29T08:50:16;8.38;;;2.20;;
21303;SDS011;30547;52.384;9.744;2022-07-29T08:52:41;8.43;;;2.00;;
21303;SDS011;30547;52.384;9.744;2022-07-29T08:55:09;5.17;;;2.20;;
21303;SDS011;30547;52.384;9.744;2022-07-29T08:57:35;6.15;;;2.22;;
21303;SDS011;30547;52.384;9.744;2022-07-29T09:00:03;8.98;;;2.58;;
21303;SDS011;30547;52.384;9.744;2022-07-29T09:02:33;8.17;;;2.73;;
21303;SDS011;30547;52.384;9.744;2022-07-29T09:05:01;8.10;;;2.70;;
21303;SDS011;30547;52.384;9.744;2022-07-29T09:07:27;7.07;;;2.38;;
21303;SDS011;30547;52.384;9.744;2022-07-29T09:09:55;5.90;;;2.95;;
21303;SDS011;30547;52.384;9.744;2022-07-29T09:12:21;5.63;;;2.87;;
21303;SDS011;30547;52.384;9.744;2022-07-29T09:14:50;5.23;;;2.83;;
21303;SDS011;30547;52.384;9.744;2022-07-29T09:17:20;7.68;;;2.78;;
21303;SDS011;30547;52.384;9.744;2022-07-29T09:20:09;5.97;;;2.90;;
21303;SDS011;30547;52.384;9.744;2022-07-29T09:22:35;6.47;;;3.10;;
21303;SDS011;30547;52.384;9.744;2022-07-29T09:25:04;10.63;;;3.20;;
21303;SDS011;30547;52.384;9.744;2022-07-29T09:27:30;8.90;;;3.40;;
21303;SDS011;30547;52.384;9.744;2022-07-29T09:30:03;5.72;;;3.05;;
21303;SDS011;30547;52.384;9.744;2022-07-29T09:32:31;6.15;;;3.05;;
21303;SDS011;30547;52.384;9.744;2022-07-29T09:35:16;9.05;;;3.22;;
21303;SDS011;30547;52.384;9.744;2022-07-29T09:37:47;6.03;;;3.10;;
21303;SDS011;30547;52.384;9.744;2022-07-29T09:40:17;6.47;;;3.00;;
21303;SDS011;30547;52.384;9.744;2022-07-29T09:42:47;4.07;;;2.72;;
21303;SDS011;30547;52.384;9.744;2022-07-29T09:45:25;6.57;;;3.17;;
21303;SDS011;30547;52.384;9.744;2022-07-29T09:47:55;8.65;;;3.00;;
21303;SDS011;30547;52.384;9.744;2022-07-29T09:50:38;5.32;;;2.92;;
21303;SDS011;30547;52.384;9.744;2022-07-29T09:53:07;5.20;;;2.83;;
21303;SDS011;30547;52.384;9.744;2022-07-29T09:55:48;6.05;;;2.70;;
21303;SDS011;30547;52.384;9.744;2022-07-29T09:58:15;5.93;;;2.83;;
21303;SDS011;30547;52.384;9.744;2022-07-29T10:00:44;6.10;;;2.63;;
21303;SDS011;30547;52.384;9.744;2022-07-29T10:03:11;5.03;;;2.25;;
21303;SDS011;30547;52.384;9.744;2022-07-29T10:05:42;7.00;;;2.70;;
21303;SDS011;30547;52.384;9.744;2022-07-29T10:08:13;5.40;;;2.30;;
21303;SDS011;30547;52.384;9.744;2022-07-29T10:10:50;7.23;;;2.07;;
21303;SDS011;30547;52.384;9.744;2022-07-29T10:13:20;3.33;;;2.10;;
21303;SDS011;30547;52.384;9.744;2022-07-29T10:15:49;6.28;;;2.28;;
21303;SDS011;30547;52.384;9.744;2022-07-29T10:18:17;5.47;;;2.28;;
21303;SDS011;30547;52.384;9.744;2022-07-29T10:20:46;6.10;;;2.00;;
21303;SDS011;30547;52.384;9.744;2022-07-29T10:23:14;5.68;;;2.20;;
21303;SDS011;30547;52.384;9.744;2022-07-29T10:25:44;3.78;;;1.92;;
21303;SDS011;30547;52.384;9.744;2022-07-29T10:28:14;6.05;;;2.03;;
21303;SDS011;30547;52.384;9.744;2022-07-29T10:30:39;4.78;;;1.58;;
21303;SDS011;30547;52.384;9.744;2022-07-29T10:39:08;3.40;;;2.10;;
21303;SDS011;30547;52.384;9.744;2022-07-29T10:41:59;3.25;;;1.90;;
21303;SDS011;30547;52.384;9.744;2022-07-29T10:44:31;7.00;;;1.90;;
21303;SDS011;30547;52.384;9.744;2022-07-29T10:46:58;4.47;;;1.80;;
21303;SDS011;30547;52.384;9.744;2022-07-29T10:49:27;6.75;;;2.40;;
21303;SDS011;30547;52.384;9.744;2022-07-29T10:57:10;3.92;;;1.40;;
21303;SDS011;30547;52.384;9.744;2022-07-29T10:59:36;4.07;;;1.90;;
21303;SDS011;30547;52.384;9.744;2022-07-29T11:02:02;5.13;;;1.80;;
21303;SDS011;30547;52.384;9.744;2022-07-29T11:05:08;3.10;;;1.73;;
21303;SDS011;30547;52.384;9.744;2022-07-29T11:08:16;3.90;;;2.00;;
21303;SDS011;30547;52.384;9.744;2022-07-29T11:10:45;3.83;;;1.90;;
21303;SDS011;30547;52.384;9.744;2022-07-29T11:13:28;4.13;;;2.08;;
21303;SDS011;30547;52.384;9.744;2022-07-29T11:16:20;4.53;;;1.95;;
21303;SDS011;30547;52.384;9.744;2022-07-29T11:21:39;5.50;;;1.90;;
21303;SDS011;30547;52.384;9.744;2022-07-29T11:24:16;5.05;;;1.77;;
21303;SDS011;30547;52.384;9.744;2022-07-29T11:26:43;4.20;;;1.98;;
21303;SDS011;30547;52.384;9.744;2022-07-29T11:31:45;6.50;;;2.15;;
21303;SDS011;30547;52.384;9.744;2022-07-29T11:34:21;3.17;;;2.10;;
21303;SDS011;30547;52.384;9.744;2022-07-29T11:44:57;4.50;;;2.40;;
21303;SDS011;30547;52.384;9.744;2022-07-29T11:47:27;7.90;;;2.60;;
21303;SDS011;30547;52.384;9.744;2022-07-29T11:50:00;5.07;;;2.55;;
21303;SDS011;30547;52.384;9.744;2022-07-29T11:52:32;5.88;;;2.67;;
21303;SDS011;30547;52.384;9.744;2022-07-29T11:55:15;7.40;;;2.45;;
21303;SDS011;30547;52.384;9.744;2022-07-29T11:57:48;9.10;;;2.47;;
21303;SDS011;30547;52.384;9.744;2022-07-29T12:00:32;6.45;;;2.60;;
21303;SDS011;30547;52.384;9.744;2022-07-29T12:03:27;6.80;;;2.40;;
21303;SDS011;30547;52.384;9.744;2022-07-29T12:05:55;5.00;;;2.47;;
21303;SDS011;30547;52.384;9.744;2022-07-29T12:08:22;5.38;;;2.25;;
21303;SDS011;30547;52.384;9.744;2022-07-29T12:10:48;5.20;;;2.10;;
21303;SDS011;30547;52.384;9.744;2022-07-29T12:13:15;5.05;;;2.28;;
21303;SDS011;30547;52.384;9.744;2022-07-29T12:15:42;11.68;;;2.63;;
21303;SDS011;30547;52.384;9.744;2022-07-29T12:18:21;5.35;;;2.17;;
21303;SDS011;30547;52.384;9.744;2022-07-29T12:20:48;7.97;;;2.40;;
21303;SDS011;30547;52.384;9.744;2022-07-29T12:23:22;5.43;;;2.20;;
21303;SDS011;30547;52.384;9.744;2022-07-29T12:25:54;3.55;;;2.00;;
21303;SDS011;30547;52.384;9.744;2022-07-29T12:28:22;5.05;;;2.30;;
21303;SDS011;30547;52.384;9.744;2022-07-29T12:30:49;7.40;;;2.35;;
21303;SDS011;30547;52.384;9.744;2022-07-29T12:33:22;4.90;;;2.28;;
21303;SDS011;30547;52.384;9.744;2022-07-29T12:35:52;3.60;;;2.20;;
21303;SDS011;30547;52.384;9.744;2022-07-29T12:38:22;5.68;;;2.05;;
21303;SDS011;30547;52.384;9.744;2022-07-29T12:40:52;5.68;;;2.92;;
21303;SDS011;30547;52.384;9.744;2022-07-29T12:43:20;3.67;;;2.40;;
21303;SDS011;30547;52.384;9.744;2022-07-29T12:45:51;5.20;;;2.38;;
21303;SDS011;30547;52.384;9.744;2022-07-29T12:48:37;5.70;;;2.20;;
21303;SDS011;30547;52.384;9.744;2022-07-29T12:51:13;4.47;;;2.50;;
21303;SDS011;30547;52.384;9.744;2022-07-29T12:53:39;6.50;;;2.35;;
21303;SDS011;30547;52.384;9.744;2022-07-29T12:56:14;4.13;;;2.30;;
21303;SDS011;30547;52.384;9.744;2022-07-29T12:58:47;4.17;;;2.13;;
21303;SDS011;30547;52.384;9.744;2022-07-29T13:01:14;3.80;;;2.22;;
21303;SDS011;30547;52.384;9.744;2022-07-29T13:03:51;5.55;;;2.33;;
21303;SDS011;30547;52.384;9.744;2022-07-29T13:09:00;6.50;;;2.30;;
21303;SDS011;30547;52.384;9.744;2022-07-29T13:11:38;5.50;;;2.30;;
21303;SDS011;30547;52.384;9.744;2022-07-29T13:14:08;4.30;;;2.55;;
21303;SDS011;30547;52.384;9.744;2022-07-29T13:16:36;5.05;;;2.40;;
21303;SDS011;30547;52.384;9.744;2022-07-29T13:19:06;3.28;;;2.42;;
21303;SDS011;30547;52.384;9.744;2022-07-29T13:21:37;4.37;;;2.50;;
21303;SDS011;30547;52.384;9.744;2022-07-29T13:24:04;5.07;;;2.70;;
21303;SDS011;30547;52.384;9.744;2022-07-29T13:26:32;5.43;;;2.83;;
21303;SDS011;30547;52.384;9.744;2022-07-29T13:28:58;7.25;;;2.70;;
21303;SDS011;30547;52.384;9.744;2022-07-29T13:31:24;5.60;;;2.67;;
21303;SDS011;30547;52.384;9.744;2022-07-29T13:33:52;5.30;;;2.60;;
21303;SDS011;30547;52.384;9.744;2022-07-29T13:36:18;8.00;;;2.42;;
21303;SDS011;30547;52.384;9.744;2022-07-29T13:38:46;7.55;;;2.55;;
21303;SDS011;30547;52.384;9.744;2022-07-29T13:41:12;10.48;;;3.10;;
21303;SDS011;30547;52.384;9.744;2022-07-29T13:43:37;6.43;;;2.70;;
21303;SDS011;30547;52.384;9.744;2022-07-29T13:46:03;4.43;;;2.40;;
21303;SDS011;30547;52.384;9.744;2022-07-29T13:48:28;5.10;;;2.67;;
21303;SDS011;30547;52.384;9.744;2022-07-29T13:50:54;7.43;;;2.50;;
21303;SDS011;30547;52.384;9.744;2022-07-29T13:53:22;3.65;;;2.47;;
21303;SDS011;30547;52.384;9.744;2022-07-29T13:55:48;3.83;;;2.70;;
21303;SDS011;30547;52.384;9.744;2022-07-29T13:58:13;6.45;;;2.30;;
21303;SDS011;30547;52.384;9.744;2022-07-29T14:00:41;5.68;;;2.63;;
21303;SDS011;30547;52.384;9.744;2022-07-29T14:03:06;4.90;;;2.47;;
21303;SDS011;30547;52.384;9.744;2022-07-29T14:05:36;5.85;;;2.65;;
21303;SDS011;30547;52.384;9.744;2022-07-29T14:08:08;6.82;;;2.85;;
21303;SDS011;30547;52.384;9.744;2022-07-29T14:10:34;6.57;;;2.83;;
21303;SDS011;30547;52.384;9.744;2022-07-29T14:13:00;4.90;;;2.60;;
21303;SDS011;30547;52.384;9.744;2022-07-29T14:15:29;7.50;;;4.20;;
21303;SDS011;30547;52.384;9.744;2022-07-29T14:17:56;7.17;;;2.77;;
21303;SDS011;30547;52.384;9.744;2022-07-29T14:20:26;6.35;;;2.70;;
21303;SDS011;30547;52.384;9.744;2022-07-29T14:22:56;4.03;;;2.57;;
21303;SDS011;30547;52.384;9.744;2022-07-29T14:25:23;7.85;;;2.75;;
21303;SDS011;30547;52.384;9.744;2022-07-29T14:27:50;5.72;;;3.17;;
21303;SDS011;30547;52.384;9.744;2022-07-29T14:30:22;8.17;;;3.17;;
21303;SDS011;30547;52.384;9.744;2022-07-29T14:32:49;8.33;;;4.90;;
21303;SDS011;30547;52.384;9.744;2022-07-29T14:35:18;7.35;;;3.75;;
21303;SDS011;30547;52.384;9.744;2022-07-29T14:37:47;5.90;;;2.43;;
21303;SDS011;30547;52.384;9.744;2022-07-29T14:40:14;8.05;;;3.58;;
21303;SDS011;30547;52.384;9.744;2022-07-29T14:42:42;5.88;;;2.95;;
21303;SDS011;30547;52.384;9.744;2022-07-29T14:45:12;6.65;;;3.00;;
21303;SDS011;30547;52.384;9.744;2022-07-29T14:47:40;5.97;;;2.60;;
21303;SDS011;30547;52.384;9.744;2022-07-29T14:50:08;6.77;;;4.17;;
21303;SDS011;30547;52.384;9.744;2022-07-29T14:52:35;7.20;;;2.80;;
21303;SDS011;30547;52.384;9.744;2022-07-29T14:55:04;7.45;;;3.60;;
21303;SDS011;30547;52.384;9.744;2022-07-29T14:57:50;11.18;;;5.75;;
21303;SDS011;30547;52.384;9.744;2022-07-29T15:00:22;6.97;;;3.70;;
21303;SDS011;30547;52.384;9.744;2022-07-29T15:02:50;4.45;;;2.42;;
21303;SDS011;30547;52.384;9.744;2022-07-29T15:05:21;6.28;;;3.28;;
21303;SDS011;30547;52.384;9.744;2022-07-29T15:07:46;5.68;;;3.20;;
21303;SDS011;30547;52.384;9.744;2022-07-29T15:10:12;5.20;;;3.33;;
21303;SDS011;30547;52.384;9.744;2022-07-29T15:12:40;5.05;;;3.42;;
21303;SDS011;30547;52.384;9.744;2022-07-29T15:15:06;4.73;;;2.90;;
21303;SDS011;30547;52.384;9.744;2022-07-29T15:17:32;6.40;;;2.80;;
21303;SDS011;30547;52.384;9.744;2022-07-29T15:19:58;5.07;;;2.92;;
21303;SDS011;30547;52.384;9.744;2022-07-29T15:22:24;3.33;;;2.60;;
21303;SDS011;30547;52.384;9.744;2022-07-29T15:24:50;6.55;;;3.28;;
21303;SDS011;30547;52.384;9.744;2022-07-29T15:27:16;5.03;;;2.70;;
21303;SDS011;30547;52.384;9.744;2022-07-29T15:29:42;5.17;;;3.20;;
21303;SDS011;30547;52.384;9.744;2022-07-29T15:32:13;6.65;;;3.20;;
21303;SDS011;30547;52.384;9.744;2022-07-29T15:34:42;6.07;;;2.80;;
21303;SDS011;30547;52.384;9.744;2022-07-29T15:37:07;4.30;;;2.60;;
21303;SDS011;30547;52.384;9.744;2022-07-29T15:39:33;4.73;;;2.77;;
21303;SDS011;30547;52.384;9.744;2022-07-29T15:42:01;4.23;;;2.87;;
21303;SDS011;30547;52.384;9.744;2022-07-29T15:44:31;4.22;;;2.67;;
21303;SDS011;30547;52.384;9.744;2022-07-29T15:47:00;6.72;;;2.85;;
21303;SDS011;30547;52.384;9.744;2022-07-29T15:49:36;4.90;;;2.80;;
21303;SDS011;30547;52.384;9.744;2022-07-29T15:52:08;7.20;;;2.55;;